ADDS METAR Data INFO
IDs: Format: Raw Decoded Include TAF

Data at: 1847 UTC 17 Oct 2017

KLLJ 171755Z AUTO 00000KT 10SM CLR 09/M04 A3019 RMK AO2 SLP214 T00941044 10094 21044 58020
KLLJ 171655Z AUTO 00000KT 10SM CLR 07/M03 A3023 RMK AO2 SLP232 T00671033
KLLJ 171555Z AUTO 00000KT 10SM CLR 04/M03 A3025 RMK AO2 SLP246 T00391033
KLLJ 171455Z AUTO 00000KT 10SM CLR M02/M05 A3026 RMK AO2 SLP255 T10171050 56007
KLLJ 171355Z AUTO 21003KT 10SM CLR M03/M06 A3026 RMK AO2 SLP256 T10331056
KLLJ 171255Z AUTO 00000KT 10SM CLR M03/M06 A3027 RMK AO2 SLP256 T10331056
KLLJ 171155Z AUTO 22003KT 10SM CLR M02/M06 A3028 RMK AO2 SLP247 T10221056 10028 21033 56005
KLLJ 171055Z AUTO 00000KT 10SM CLR M02/M06 A3028 RMK AO2 SLP244 T10221056
KLLJ 170955Z AUTO 00000KT 10SM CLR M01/M05 A3029 RMK AO2 SLP248 T10111050
KLLJ 170855Z AUTO 23003KT 10SM CLR M01/M04 A3030 RMK AO2 SLP251 T10061044 53002
KLLJ 170755Z AUTO 00000KT 10SM CLR 00/M03 A3030 RMK AO2 SLP253 T00001033
KLLJ 170655Z AUTO 00000KT 10SM CLR 01/M04 A3029 RMK AO2 SLP253 T00061044 401721044
KLLJ 170555Z AUTO 00000KT 10SM CLR 03/M04 A3029 RMK AO2 SLP253 T00281039 10144 20022 51006
KLLJ 170455Z AUTO 00000KT 10SM CLR 03/M04 A3029 RMK AO2 SLP260 T00281039
KLLJ 170355Z AUTO 00000KT 10SM CLR 03/M03 A3028 RMK AO2 SLP260 T00281033
KLLJ 170255Z AUTO 04003KT 10SM CLR 06/M03 A3027 RMK AO2 SLP257 T00611033 53009
KLLJ 170155Z AUTO 00000KT 10SM CLR 08/M03 A3026 RMK AO2 SLP258 T00781033
KLLJ 170055Z AUTO 21004KT 10SM CLR 09/M04 A3024 RMK AO2 SLP244 T00891039
KLLJ 162355Z AUTO 24003KT 10SM CLR 14/M04 A3024 RMK AO2 SLP233 T01441044 10172 20072 56014
KLLJ 162255Z AUTO 00000KT 10SM CLR 17/M06 A3025 RMK AO2 SLP235 T01671056
KLLJ 162155Z AUTO 02004KT 10SM CLR 16/M06 A3027 RMK AO2 SLP240 T01561061
KLLJ 162055Z AUTO VRB03KT 10SM CLR 14/M06 A3029 RMK AO2 SLP247 T01391061 58029
KLLJ 161955Z AUTO VRB03KT 10SM CLR 12/M04 A3032 RMK AO2 SLP262 T01221044
KLLJ 161855Z AUTO 00000KT 10SM CLR 11/M04 A3037 RMK AO2 SLP279 T01061039
KLLJ 161755Z AUTO 00000KT 10SM CLR 08/M03 A3039 RMK AO2 SLP292 T00781028 10083 21039 58005
KLLJ 161655Z AUTO 00000KT 10SM CLR 05/M02 A3042 RMK AO2 SLP307 T00501017
KLLJ 161555Z AUTO 00000KT 10SM CLR 03/M03 A3042 RMK AO2 SLP311 T00281028
KLLJ 161455Z AUTO 00000KT 10SM CLR M01/M03 A3041 RMK AO2 SLP305 T10061028 53007
KLLJ 161355Z AUTO 27003KT 10SM CLR M04/M05 A3040 RMK AO2 SLP306 T10391050
KLLJ 161255Z AUTO 00000KT 10SM CLR M02/M04 A3039 RMK AO2 SLP303 T10221039
KLLJ 161155Z AUTO 00000KT 10SM CLR M03/M04 A3038 RMK AO2 SLP288 T10281044 10011 21044 50002
KLLJ 161055Z AUTO 00000KT 10SM CLR M03/M05 A3038 RMK AO2 SLP288 T10331050
KLLJ 160955Z AUTO 00000KT 10SM CLR M02/M04 A3038 RMK AO2 SLP285 T10221039
KLLJ 160855Z AUTO 00000KT 10SM CLR M01/M03 A3038 RMK AO2 SLP282 T10061033 51003
KLLJ 160755Z AUTO 00000KT 10SM CLR M01/M04 A3037 RMK AO2 SLP286 T10061039
KLLJ 160655Z AUTO 00000KT 10SM CLR 00/M03 A3037 RMK AO2 SLP288 T00001033 401391061